Middle Grove, Missouri
Current Conditions -  °F | °C
As of 5:55 PM on Wednesday 28 Jan 2015 (Local Time) from KHAE Reporting Station
Clear Clear  
Wind Chill: 43°   Ceiling: Unl
Heat Index: 48°   Visibility: 10mi
Dew Point: 30°   Wind: 13mph
Humidity: 50%   Direction: 140°SE
Pressure: 29.8"   Gusts: 20mph
Location:  39.4792°N, 92.217°W
Report Text: KHAE 282355Z AUTO 14011G17KT 10SM CLR 09/M01 A2980 RMK AO2
Loading
Personal Weather Stations






























Interactive Weather Map New forecast layout! Learn more

10-Day Weather Forecast

Advertisements
Track Severe Weather on mobile